Idledale, Colorado
Current Conditions -  °F | °C
As of 12:55 AM on Friday 24 Oct 2014 (Local Time) from KBJC Reporting Station
Clear Clear  
Wind Chill: 64°   Ceiling: Unl
Heat Index: 64°   Visibility: 10mi
Dew Point: 23°   Wind: 3mph
Humidity: 21%   Direction: 220°SW
Pressure: 30.15"   Gusts: NA
Location:  39.67°N, 105.25°W
Report Text: KBJC 240655Z AUTO 22003KT 10SM CLR 18/M05 A3015 RMK AO2
Loading
Personal Weather Stations






























Interactive Weather Map
Tropical Storm Tracking
New forecast layout! Learn more

10-Day Weather Forecast

Advertisements
Track Severe Weather on mobile